Time;durP1;ratioP1;P1;durP2;ratioP2;P2;SDS_P1;SDS_P2;PMS_P1;PMS_P2;Temp;Humidity;BMP_temperature;BMP_pressure;BME280_temperature;BME280_humidity;BME280_pressure;Samples;Min_cycle;Max_cycle;Signal;HPM_P1;HPM_P2
2022/07/06 00:01:38;;;;;;;6.93;1.55;;;14.50;99.90;;;;;;5074291;28;20510;-42
2022/07/06 00:04:04;;;;;;;4.40;1.40;;;12.80;99.90;;;;;;5073758;28;20046;-44
2022/07/06 00:06:32;;;;;;;5.85;1.65;;;12.70;99.90;;;;;;5074009;28;20036;-41
2022/07/06 00:08:58;;;;;;;4.50;1.20;;;13.00;99.90;;;;;;5074417;28;20651;-42
2022/07/06 00:11:23;;;;;;;4.40;1.23;;;11.60;99.90;;;;;;5074314;28;20083;-42
2022/07/06 00:13:50;;;;;;;3.25;1.20;;;12.80;99.90;;;;;;5073897;28;20093;-42
2022/07/06 00:16:16;;;;;;;4.57;1.40;;;12.80;99.90;;;;;;5073994;28;20036;-41
2022/07/06 00:18:42;;;;;;;4.50;1.33;;;12.80;99.90;;;;;;5073822;28;20208;-42
2022/07/06 00:21:09;;;;;;;5.65;1.48;;;12.90;99.90;;;;;;5073709;28;20051;-42
2022/07/06 00:23:35;;;;;;;5.88;1.77;;;12.80;99.90;;;;;;5073882;28;20051;-42
2022/07/06 00:26:01;;;;;;;6.55;1.27;;;13.90;99.90;;;;;;5073946;28;20113;-44
2022/07/06 00:28:27;;;;;;;5.60;1.30;;;14.00;99.90;;;;;;5073524;28;20075;-42
2022/07/06 00:30:53;;;;;;;7.75;1.52;;;12.80;99.90;;;;;;5073033;28;20032;-42
2022/07/06 00:33:18;;;;;;;4.88;1.23;;;12.70;99.90;;;;;;5074877;28;20085;-42
2022/07/06 00:35:46;;;;;;;5.57;1.77;;;13.40;99.90;;;;;;5073277;28;20060;-42
2022/07/06 00:38:12;;;;;;;3.00;1.30;;;13.20;99.90;;;;;;5074471;28;20140;-43
2022/07/06 00:40:37;;;;;;;5.32;1.17;;;14.70;99.90;;;;;;5073099;28;20055;-47
2022/07/06 00:43:03;;;;;;;4.93;1.35;;;13.00;99.90;;;;;;5078348;28;20036;-46
2022/07/06 00:45:30;;;;;;;4.75;1.30;;;12.80;99.90;;;;;;5077734;28;20310;-47
2022/07/06 00:47:56;;;;;;;5.95;1.27;;;12.90;99.90;;;;;;5078760;28;20036;-50
2022/07/06 00:50:22;;;;;;;7.25;1.30;;;13.00;99.90;;;;;;5078455;28;20058;-45
2022/07/06 00:52:59;;;;;;;6.15;1.60;;;12.60;99.90;;;;;;5078344;28;21070;-45
2022/07/06 00:55:28;;;;;;;5.45;1.42;;;12.50;99.90;;;;;;5077548;28;20040;-47
2022/07/06 00:57:55;;;;;;;6.38;1.52;;;12.50;99.90;;;;;;5078277;28;20051;-47
2022/07/06 01:00:22;;;;;;;6.72;1.40;;;14.10;99.90;;;;;;5076161;28;20665;-47
2022/07/06 01:02:50;;;;;;;6.18;1.48;;;12.50;99.90;;;;;;5060462;28;20055;-45
2022/07/06 01:05:17;;;;;;;5.65;1.65;;;13.00;99.90;;;;;;5077143;28;20036;-47
2022/07/06 01:07:45;;;;;;;7.45;2.08;;;14.00;99.90;;;;;;5077551;28;21205;-42
2022/07/06 01:10:13;;;;;;;5.40;1.60;;;12.40;99.90;;;;;;5076925;28;20145;-45
2022/07/06 01:12:41;;;;;;;5.93;1.33;;;12.40;99.90;;;;;;5078543;28;20159;-46
2022/07/06 01:15:09;;;;;;;7.13;1.50;;;12.40;99.90;;;;;;5078240;28;20040;-48
2022/07/06 01:17:38;;;;;;;6.35;1.50;;;12.40;99.90;;;;;;5078569;28;20044;-46
2022/07/06 01:20:14;;;;;;;4.18;1.38;;;12.60;99.90;;;;;;5076762;28;20087;-45
2022/07/06 01:22:40;;;;;;;5.03;1.80;;;12.50;99.90;;;;;;5077154;28;20136;-43
2022/07/06 01:25:06;;;;;;;3.63;1.40;;;12.60;99.90;;;;;;5078403;28;20063;-47
2022/07/06 01:27:39;;;;;;;6.22;1.45;;;12.50;99.90;;;;;;5077312;28;20044;-47
2022/07/06 01:30:07;;;;;;;6.22;1.60;;;12.60;99.90;;;;;;5077692;28;20056;-45
2022/07/06 01:32:33;;;;;;;5.50;1.48;;;12.60;99.90;;;;;;5078148;28;20134;-41
2022/07/06 01:34:59;;;;;;;5.40;1.63;;;12.70;99.90;;;;;;5075650;28;20032;-41
2022/07/06 01:37:25;;;;;;;7.28;1.48;;;12.50;99.90;;;;;;5077125;28;20467;-45
2022/07/06 01:39:51;;;;;;;6.75;1.48;;;13.00;99.90;;;;;;5076511;28;20889;-45
2022/07/06 01:42:17;;;;;;;8.55;1.80;;;13.00;99.90;;;;;;5078679;28;20036;-41
2022/07/06 01:44:44;;;;;;;7.68;1.48;;;12.90;99.90;;;;;;5078144;28;20075;-43
2022/07/06 01:47:13;;;;;;;7.45;1.65;;;13.00;99.90;;;;;;5075925;28;20039;-45
2022/07/06 01:49:38;;;;;;;6.07;1.60;;;13.40;99.90;;;;;;5077557;28;20476;-43
2022/07/06 01:52:04;;;;;;;6.57;1.60;;;14.20;99.90;;;;;;5077137;28;20317;-44
2022/07/06 01:54:32;;;;;;;7.57;1.70;;;12.80;99.90;;;;;;5076286;28;20111;-42
2022/07/06 01:56:57;;;;;;;4.60;1.63;;;12.80;99.90;;;;;;5076653;28;20799;-44
2022/07/06 01:59:23;;;;;;;4.85;1.60;;;12.90;99.90;;;;;;5075775;28;20109;-43
2022/07/06 02:01:49;;;;;;;5.45;1.40;;;13.60;99.90;;;;;;5076668;28;20074;-42
2022/07/06 02:04:14;;;;;;;7.63;1.70;;;12.80;99.90;;;;;;5076499;28;20143;-47
2022/07/06 02:06:40;;;;;;;6.85;1.50;;;14.10;99.90;;;;;;5076850;28;20434;-42
2022/07/06 02:09:06;;;;;;;5.70;1.33;;;12.90;99.90;;;;;;5076930;28;20043;-42
2022/07/06 02:11:31;;;;;;;5.20;1.35;;;14.50;99.90;;;;;;5077498;28;20036;-43
2022/07/06 02:13:57;;;;;;;8.40;2.10;;;14.00;99.90;;;;;;5077499;28;20040;-46
2022/07/06 02:16:23;;;;;;;7.57;1.67;;;13.80;99.90;;;;;;5076406;28;20302;-46
2022/07/06 02:18:48;;;;;;;7.90;2.25;;;13.40;99.90;;;;;;5077024;28;20032;-45
2022/07/06 02:21:14;;;;;;;3.75;1.27;;;12.90;99.90;;;;;;5075915;28;20047;-45
2022/07/06 02:23:40;;;;;;;6.47;1.63;;;12.80;99.90;;;;;;5077165;28;20063;-43
2022/07/06 02:26:05;;;;;;;8.25;1.73;;;12.80;99.90;;;;;;5076526;28;20032;-42
2022/07/06 02:28:31;;;;;;;8.05;2.10;;;14.10;99.90;;;;;;5076365;28;20040;-45
2022/07/06 02:30:57;;;;;;;4.75;1.27;;;12.90;99.90;;;;;;5075802;28;20046;-42
2022/07/06 02:33:22;;;;;;;6.45;1.52;;;14.80;99.90;;;;;;5076298;28;20787;-46
2022/07/06 02:35:48;;;;;;;6.60;1.65;;;11.10;99.90;;;;;;5075793;28;20405;-46
2022/07/06 02:38:16;;;;;;;6.13;1.42;;;13.10;99.90;;;;;;5075578;28;20602;-42
2022/07/06 02:40:41;;;;;;;6.05;1.25;;;14.60;99.90;;;;;;5075955;28;20043;-44
2022/07/06 02:43:07;;;;;;;8.40;1.08;;;13.50;99.90;;;;;;5076862;28;20032;-45
2022/07/06 02:45:36;;;;;;;7.35;2.20;;;13.10;99.90;;;;;;5075008;28;20050;-45
2022/07/06 02:48:04;;;;;;;3.80;1.30;;;12.90;99.90;;;;;;5075131;28;20044;-47
2022/07/06 02:50:30;;;;;;;7.25;1.42;;;12.90;99.90;;;;;;5074245;28;20051;-42
2022/07/06 02:52:56;;;;;;;9.00;1.17;;;13.00;99.90;;;;;;5076340;28;20040;-42
2022/07/06 02:55:23;;;;;;;6.15;1.00;;;12.90;99.90;;;;;;5076041;28;20445;-45
2022/07/06 02:57:49;;;;;;;3.78;0.98;;;11.80;99.90;;;;;;5075963;28;20075;-46
2022/07/06 03:00:16;;;;;;;4.03;0.80;;;12.90;99.90;;;;;;5075209;28;20129;-46
2022/07/06 03:02:41;;;;;;;8.15;1.38;;;12.90;99.90;;;;;;5073946;28;20036;-44
2022/07/06 03:05:07;;;;;;;4.90;1.15;;;13.00;99.90;;;;;;5074494;28;20085;-43
2022/07/06 03:07:33;;;;;;;4.25;0.90;;;12.90;99.90;;;;;;5075829;28;20099;-42
2022/07/06 03:10:01;;;;;;;6.95;1.10;;;12.70;99.00;;;;;;5075367;28;20178;-43
2022/07/06 03:12:27;;;;;;;10.30;1.23;;;13.80;99.20;;;;;;5076664;28;20046;-45
2022/07/06 03:14:52;;;;;;;6.70;1.00;;;12.70;97.70;;;;;;5076072;28;20036;-46
2022/07/06 03:17:18;;;;;;;4.07;0.70;;;12.70;97.50;;;;;;5075356;28;20769;-42
2022/07/06 03:19:44;;;;;;;4.30;0.88;;;14.60;96.50;;;;;;5075864;28;20467;-46
2022/07/06 03:22:09;;;;;;;4.90;0.90;;;12.70;93.40;;;;;;5074423;28;20281;-44
2022/07/06 03:24:35;;;;;;;3.97;0.60;;;14.30;93.10;;;;;;5075635;28;20400;-43
2022/07/06 03:27:03;;;;;;;5.95;1.15;;;12.90;91.10;;;;;;5076032;28;20039;-45
2022/07/06 03:29:28;;;;;;;7.20;1.02;;;12.60;90.40;;;;;;5074341;28;20055;-43
2022/07/06 03:31:54;;;;;;;7.57;1.40;;;12.60;90.40;;;;;;5074449;28;20048;-45
2022/07/06 03:34:21;;;;;;;4.90;1.15;;;12.50;92.00;;;;;;5074327;28;20093;-45
2022/07/06 03:36:47;;;;;;;5.93;1.20;;;12.70;93.40;;;;;;5074276;28;20096;-46
2022/07/06 03:39:13;;;;;;;6.93;0.80;;;12.40;93.30;;;;;;5073861;28;20599;-46
2022/07/06 03:41:39;;;;;;;8.57;1.17;;;13.30;94.10;;;;;;5076214;28;20047;-45
2022/07/06 03:44:04;;;;;;;6.50;1.00;;;12.40;94.50;;;;;;5076637;28;20903;-46
2022/07/06 03:46:30;;;;;;;5.22;1.02;;;12.30;94.10;;;;;;5074160;28;20040;-42
2022/07/06 03:48:56;;;;;;;7.05;1.13;;;12.30;94.20;;;;;;5075643;28;20043;-44
2022/07/06 03:51:22;;;;;;;5.68;0.90;;;12.40;94.40;;;;;;5074864;28;20816;-47
2022/07/06 03:53:48;;;;;;;5.20;0.90;;;13.00;96.10;;;;;;5074115;28;20083;-46
2022/07/06 03:56:28;;;;;;;9.45;1.30;;;12.20;95.30;;;;;;5075958;28;20126;-48
2022/07/06 03:59:00;;;;;;;4.07;0.90;;;12.00;95.30;;;;;;5074232;28;20043;-46
2022/07/06 04:01:26;;;;;;;6.90;1.15;;;13.50;95.60;;;;;;5074393;28;20396;-45
2022/07/06 04:03:52;;;;;;;6.10;1.10;;;14.00;95.80;;;;;;5073547;28;20040;-46
2022/07/06 04:06:20;;;;;;;9.00;1.45;;;12.20;94.60;;;;;;5073249;28;20052;-45
2022/07/06 04:08:46;;;;;;;8.68;1.23;;;12.20;93.50;;;;;;5074491;28;20611;-47
2022/07/06 04:11:12;;;;;;;5.15;0.95;;;12.60;92.70;;;;;;5074556;28;20032;-46
2022/07/06 04:13:38;;;;;;;9.43;0.98;;;12.20;91.70;;;;;;5075356;28;20024;-44
2022/07/06 04:16:06;;;;;;;5.65;1.00;;;13.10;90.30;;;;;;5074150;28;20032;-46
2022/07/06 04:18:32;;;;;;;6.32;1.17;;;12.30;88.10;;;;;;5072791;28;20135;-45
2022/07/06 04:20:58;;;;;;;6.68;1.20;;;14.40;88.70;;;;;;5074938;28;20447;-44
2022/07/06 04:23:24;;;;;;;3.42;0.93;;;14.30;88.30;;;;;;5072988;28;20045;-43
2022/07/06 04:25:49;;;;;;;6.97;1.00;;;12.40;86.90;;;;;;5072789;28;20688;-42
2022/07/06 04:28:15;;;;;;;4.85;1.05;;;14.00;86.70;;;;;;5074641;28;20118;-41
2022/07/06 04:30:43;;;;;;;5.78;0.90;;;12.40;86.30;;;;;;5073328;28;20078;-47
2022/07/06 04:33:09;;;;;;;8.95;1.20;;;12.70;86.00;;;;;;5072973;28;20044;-47
2022/07/06 04:35:35;;;;;;;8.02;1.00;;;13.00;87.60;;;;;;5073684;28;20063;-46
2022/07/06 04:38:02;;;;;;;9.63;1.10;;;12.50;87.00;;;;;;5072153;28;20491;-43
2022/07/06 04:40:29;;;;;;;7.25;1.00;;;12.60;87.20;;;;;;5074132;28;20080;-45
2022/07/06 04:42:55;;;;;;;11.60;1.50;;;14.00;88.70;;;;;;5073777;28;20047;-46
2022/07/06 04:45:21;;;;;;;6.63;1.00;;;12.60;87.60;;;;;;5073510;28;20424;-43
2022/07/06 04:47:48;;;;;;;7.40;1.52;;;12.80;89.80;;;;;;5074517;28;20047;-44
2022/07/06 04:50:14;;;;;;;5.40;0.90;;;12.70;87.80;;;;;;5073322;28;20054;-46
2022/07/06 04:52:41;;;;;;;6.82;1.13;;;13.50;87.70;;;;;;5067361;28;20130;-46
2022/07/06 04:55:10;;;;;;;4.72;0.90;;;13.20;90.40;;;;;;5073859;28;20514;-43
2022/07/06 04:57:35;;;;;;;7.28;1.00;;;12.80;91.90;;;;;;5055004;28;20552;-46
2022/07/06 05:00:02;;;;;;;5.32;1.17;;;12.60;91.70;;;;;;5074011;28;20029;-47
2022/07/06 05:02:28;;;;;;;5.47;1.10;;;12.90;90.20;;;;;;5074465;28;20030;-45
2022/07/06 05:04:55;;;;;;;7.70;1.15;;;13.30;90.80;;;;;;5073697;28;20860;-45
2022/07/06 05:07:21;;;;;;;8.65;1.00;;;14.10;91.50;;;;;;5073069;28;20043;-44
2022/07/06 05:09:47;;;;;;;4.95;0.90;;;13.00;90.90;;;;;;5074333;28;20040;-42
2022/07/06 05:12:12;;;;;;;4.28;1.00;;;13.20;90.80;;;;;;5072665;28;20283;-47
2022/07/06 05:14:38;;;;;;;3.38;0.63;;;13.00;90.40;;;;;;5074079;28;20115;-46
2022/07/06 05:17:03;;;;;;;5.15;0.90;;;13.00;88.50;;;;;;5072443;28;20514;-44
2022/07/06 05:19:29;;;;;;;5.28;0.77;;;13.00;86.30;;;;;;5072606;28;20105;-44
2022/07/06 05:21:55;;;;;;;5.60;1.02;;;13.90;86.70;;;;;;5072434;28;20124;-45
2022/07/06 05:24:21;;;;;;;8.05;1.10;;;12.80;89.10;;;;;;5072426;28;20044;-42
2022/07/06 05:26:46;;;;;;;4.43;1.27;;;13.10;90.60;;;;;;5072337;28;20044;-46
2022/07/06 05:29:12;;;;;;;6.88;1.10;;;12.90;91.00;;;;;;5074516;28;20067;-46
2022/07/06 05:31:38;;;;;;;3.53;0.77;;;13.10;91.10;;;;;;5076307;28;20036;-42
2022/07/06 05:34:03;;;;;;;3.65;0.60;;;12.80;90.70;;;;;;5077447;28;20044;-44
2022/07/06 05:36:29;;;;;;;3.10;0.70;;;13.00;90.80;;;;;;5076201;28;20043;-44
2022/07/06 05:38:58;;;;;;;5.82;0.70;;;14.00;90.10;;;;;;5077111;28;20676;-43
2022/07/06 05:41:24;;;;;;;7.28;0.82;;;13.30;87.30;;;;;;5076352;28;20036;-43
2022/07/06 05:43:49;;;;;;;4.75;0.80;;;13.50;85.30;;;;;;5076120;28;20606;-47
2022/07/06 05:46:17;;;;;;;3.78;0.70;;;13.60;80.90;;;;;;5076638;28;20111;-47
2022/07/06 05:51:28;;;;;;;5.85;0.68;;;13.80;75.40;;;;;;5076844;28;20055;-44
2022/07/06 05:53:54;;;;;;;5.68;0.90;;;13.90;64.70;;;;;;5077243;28;20104;-42
2022/07/06 05:56:20;;;;;;;5.45;0.80;;;15.30;64.10;;;;;;5077129;28;20701;-45
2022/07/06 05:58:45;;;;;;;5.85;1.10;;;14.10;55.40;;;;;;5076922;28;20184;-45
2022/07/06 06:01:11;;;;;;;5.57;0.80;;;14.00;55.30;;;;;;5077187;28;20044;-46
2022/07/06 06:03:37;;;;;;;3.35;0.70;;;14.00;49.00;;;;;;5075471;28;20063;-46
2022/07/06 06:06:05;;;;;;;6.68;0.80;;;14.80;45.20;;;;;;5076469;28;20028;-46
2022/07/06 06:08:30;;;;;;;3.53;0.80;;;14.30;45.00;;;;;;5076407;28;20044;-42
2022/07/06 06:10:56;;;;;;;5.70;0.80;;;15.30;44.30;;;;;;5076831;28;20510;-46
2022/07/06 06:13:22;;;;;;;5.07;1.00;;;14.90;42.10;;;;;;5076963;28;20708;-46
2022/07/06 06:15:48;;;;;;;6.38;1.00;;;15.70;42.40;;;;;;5075133;28;20132;-44
2022/07/06 06:18:17;;;;;;;5.28;0.70;;;16.30;41.50;;;;;;5075518;28;20032;-47
2022/07/06 06:20:42;;;;;;;6.93;1.10;;;15.20;41.30;;;;;;5076569;28;20116;-47
2022/07/06 06:23:08;;;;;;;4.90;0.82;;;14.50;40.30;;;;;;5075227;28;21115;-49
2022/07/06 06:25:36;;;;;;;6.47;1.02;;;15.40;37.50;;;;;;5075979;28;20504;-48
2022/07/06 06:28:07;;;;;;;5.68;1.08;;;14.50;37.50;;;;;;5075033;28;20047;-46
2022/07/06 06:30:33;;;;;;;7.43;1.00;;;14.40;38.10;;;;;;5075055;28;20040;-46
2022/07/06 06:33:20;;;;;;;12.00;1.30;;;14.50;37.10;;;;;;5076110;28;20290;-46
2022/07/06 06:35:51;;;;;;;3.80;0.88;;;14.10;37.30;;;;;;5075972;28;20036;-43
2022/07/06 06:38:19;;;;;;;4.80;0.70;;;14.70;39.00;;;;;;5075295;28;20089;-47
2022/07/06 06:40:49;;;;;;;4.65;0.90;;;15.00;33.70;;;;;;5074539;28;20590;-44
2022/07/06 06:43:14;;;;;;;4.28;0.80;;;16.60;31.80;;;;;;5076582;28;20071;-46
2022/07/06 06:45:40;;;;;;;4.95;1.23;;;15.40;25.10;;;;;;5076205;28;20134;-46
2022/07/06 06:48:08;;;;;;;6.28;0.77;;;17.80;14.00;;;;;;5074822;28;20500;-46
2022/07/06 06:50:33;;;;;;;5.63;0.88;;;16.00;1.00;;;;;;5074623;28;20040;-46
2022/07/06 06:52:59;;;;;;;6.00;0.82;;;16.20;1.00;;;;;;5076169;28;20056;-46
2022/07/06 06:55:25;;;;;;;5.53;1.05;;;17.40;1.00;;;;;;5076277;28;20547;-46
2022/07/06 06:57:51;;;;;;;6.82;1.08;;;17.30;1.00;;;;;;5075211;28;20171;-45
2022/07/06 07:00:17;;;;;;;5.97;0.88;;;17.80;1.00;;;;;;5075975;28;20028;-48
2022/07/06 07:02:45;;;;;;;6.03;0.98;;;17.90;99.90;;;;;;5076125;28;20055;-46
2022/07/06 07:05:10;;;;;;;6.25;0.98;;;18.10;99.90;;;;;;5076216;28;20036;-46
2022/07/06 07:07:36;;;;;;;6.53;1.00;;;18.80;99.90;;;;;;5074472;28;20481;-46
2022/07/06 07:10:03;;;;;;;7.30;0.85;;;19.00;99.90;;;;;;5074907;28;20075;-43
2022/07/06 07:12:29;;;;;;;5.10;0.93;;;19.50;45.70;;;;;;5076309;28;20040;-47
2022/07/06 07:14:55;;;;;;;5.05;1.05;;;20.30;1.00;;;;;;5076503;28;20050;-46
2022/07/06 07:17:22;;;;;;;5.03;0.70;;;23.10;99.90;;;;;;5072948;28;20055;-43
2022/07/06 07:19:48;;;;;;;6.63;0.88;;;21.80;99.90;;;;;;5074984;28;20043;-43
2022/07/06 07:22:14;;;;;;;5.60;0.73;;;22.70;99.90;;;;;;5074188;28;20036;-46
2022/07/06 07:24:39;;;;;;;5.75;0.90;;;21.20;1.00;;;;;;5076169;28;20127;-48
2022/07/06 07:27:05;;;;;;;4.25;0.70;;;21.00;1.00;;;;;;5073027;28;20127;-46
2022/07/06 07:29:31;;;;;;;5.60;0.98;;;20.40;99.90;;;;;;5075650;28;20055;-48
2022/07/06 07:31:57;;;;;;;5.85;0.90;;;19.90;99.90;;;;;;5075383;28;20050;-48
2022/07/06 07:34:22;;;;;;;4.03;0.98;;;21.30;99.90;;;;;;5075067;28;20066;-45
2022/07/06 07:36:48;;;;;;;5.93;0.80;;;18.70;99.90;;;;;;5074971;28;20039;-48
2022/07/06 07:39:13;;;;;;;6.00;0.70;;;18.60;1.00;;;;;;5073986;28;20048;-48
2022/07/06 07:41:39;;;;;;;4.65;0.80;;;18.70;99.90;;;;;;5075762;28;20036;-47
2022/07/06 07:44:05;;;;;;;3.72;0.50;;;19.70;99.90;;;;;;5074152;28;20104;-47
2022/07/06 07:46:31;;;;;;;4.20;0.60;;;21.00;92.50;;;;;;5075295;28;20435;-45
2022/07/06 07:48:56;;;;;;;5.57;0.73;;;21.80;99.90;;;;;;5074359;28;20567;-48
2022/07/06 07:51:22;;;;;;;4.07;0.68;;;22.00;1.00;;;;;;5074568;28;20047;-48
2022/07/06 07:53:48;;;;;;;2.35;0.45;;;22.60;99.90;;;;;;5074447;28;20445;-46
2022/07/06 07:56:13;;;;;;;3.80;0.60;;;21.80;99.90;;;;;;5075095;28;20043;-47
2022/07/06 07:58:39;;;;;;;5.15;0.73;;;22.30;99.90;;;;;;5074154;28;20158;-47
2022/07/06 08:01:05;;;;;;;2.75;0.50;;;21.70;1.00;;;;;;5075659;28;20079;-45
2022/07/06 08:03:33;;;;;;;3.78;0.57;;;21.30;1.00;;;;;;5074774;28;20097;-46
2022/07/06 08:05:58;;;;;;;3.70;0.70;;;21.30;1.00;;;;;;5074901;28;20044;-46
2022/07/06 08:08:24;;;;;;;5.78;0.65;;;21.00;1.00;;;;;;5074954;28;20117;-45
2022/07/06 08:10:54;;;;;;;4.53;0.75;;;21.60;1.00;;;;;;5074529;28;20048;-47
2022/07/06 08:13:21;;;;;;;2.97;0.40;;;19.70;1.00;;;;;;5075369;28;20207;-45
2022/07/06 08:15:47;;;;;;;2.65;0.60;;;20.70;71.00;;;;;;5073179;28;20051;-47
2022/07/06 08:18:12;;;;;;;3.85;0.50;;;20.40;84.10;;;;;;5073045;28;20032;-48
2022/07/06 08:20:38;;;;;;;7.32;0.88;;;18.80;99.90;;;;;;5073439;28;20130;-48
2022/07/06 08:23:04;;;;;;;3.85;0.95;;;19.60;99.90;;;;;;5074115;28;20036;-49
2022/07/06 08:25:30;;;;;;;3.50;0.60;;;18.70;99.90;;;;;;5074029;28;20032;-47
2022/07/06 08:27:56;;;;;;;8.05;0.90;;;19.60;99.90;;;;;;5073801;28;20042;-48
2022/07/06 08:30:22;;;;;;;2.95;0.50;;;21.10;99.90;;;;;;5073424;28;20569;-46
2022/07/06 08:32:48;;;;;;;5.75;0.93;;;20.80;99.90;;;;;;5073911;28;20511;-46
2022/07/06 08:35:14;;;;;;;4.55;0.82;;;21.30;99.90;;;;;;5074581;28;20052;-49
2022/07/06 08:37:40;;;;;;;3.55;0.65;;;21.60;99.90;;;;;;5074137;28;20162;-47
2022/07/06 08:40:06;;;;;;;2.20;0.40;;;21.10;99.90;;;;;;5073397;28;20036;-43
2022/07/06 08:42:33;;;;;;;3.80;0.50;;;20.90;99.90;;;;;;5073545;28;20040;-50
2022/07/06 08:45:00;;;;;;;2.78;0.70;;;22.60;99.90;;;;;;5074415;28;20596;-45
2022/07/06 08:47:29;;;;;;;3.10;0.60;;;19.80;99.90;;;;;;5074470;28;20051;-43
2022/07/06 08:49:56;;;;;;;5.63;0.52;;;19.30;99.90;;;;;;5073139;28;20318;-46
2022/07/06 08:52:23;;;;;;;3.08;0.65;;;18.80;99.90;;;;;;5073728;28;21217;-47
2022/07/06 08:54:49;;;;;;;2.78;0.55;;;19.20;99.90;;;;;;5073818;28;20071;-46
2022/07/06 08:57:15;;;;;;;3.47;0.52;;;19.90;99.90;;;;;;5073844;28;20146;-46
2022/07/06 08:59:43;;;;;;;5.13;0.60;;;20.20;99.90;;;;;;5074163;28;20028;-45
2022/07/06 09:02:13;;;;;;;2.08;0.50;;;20.20;99.90;;;;;;5073716;28;20051;-46
2022/07/06 09:04:42;;;;;;;2.33;0.60;;;19.90;99.90;;;;;;5074766;28;20423;-45
2022/07/06 09:07:08;;;;;;;3.33;0.65;;;19.50;99.90;;;;;;5076870;28;20043;-49
2022/07/06 09:09:35;;;;;;;4.40;0.70;;;19.40;99.90;;;;;;5078262;28;20048;-43
2022/07/06 09:12:01;;;;;;;24.65;2.17;;;19.00;99.90;;;;;;5078274;28;20637;-45
2022/07/06 09:14:29;;;;;;;6.68;0.63;;;19.10;99.90;;;;;;5078768;28;20070;-48
2022/07/06 09:17:04;;;;;;;6.60;1.10;;;20.90;99.90;;;;;;5076436;28;20056;-47
2022/07/06 09:19:31;;;;;;;13.10;1.50;;;19.40;99.90;;;;;;5076196;28;20067;-49
2022/07/06 09:21:57;;;;;;;24.63;3.60;;;19.80;99.90;;;;;;5077155;28;20595;-47
2022/07/06 09:24:23;;;;;;;4.40;0.95;;;20.10;99.90;;;;;;5076538;28;20043;-48
2022/07/06 09:26:49;;;;;;;2.15;0.60;;;20.20;99.90;;;;;;5077753;28;20051;-46
2022/07/06 09:29:14;;;;;;;4.22;0.80;;;19.70;99.90;;;;;;5077672;28;20043;-46
2022/07/06 09:31:40;;;;;;;4.18;0.60;;;19.90;99.90;;;;;;5076280;28;20050;-48
2022/07/06 09:34:10;;;;;;;4.25;0.80;;;19.80;99.90;;;;;;5075580;28;20047;-47
2022/07/06 09:36:48;;;;;;;2.55;0.65;;;20.10;99.90;;;;;;5076611;28;20125;-44
2022/07/06 09:39:28;;;;;;;6.05;1.30;;;20.40;99.90;;;;;;5074894;28;20075;-47
2022/07/06 09:41:59;;;;;;;2.72;0.50;;;20.50;99.90;;;;;;5076734;28;20032;-43
2022/07/06 09:44:32;;;;;;;4.63;0.80;;;20.40;99.90;;;;;;5078566;28;20071;-47
2022/07/06 09:47:01;;;;;;;4.57;0.68;;;20.00;99.90;;;;;;5076600;28;20075;-46
2022/07/06 09:49:28;;;;;;;5.03;0.70;;;20.80;99.90;;;;;;5077112;28;20543;-44
2022/07/06 09:51:59;;;;;;;3.05;0.68;;;17.70;99.90;;;;;;5075540;28;20138;-48
2022/07/06 09:54:25;;;;;;;5.50;1.10;;;19.70;99.90;;;;;;5075837;28;20151;-46
2022/07/06 09:56:52;;;;;;;5.28;0.70;;;20.10;99.90;;;;;;5075480;28;20032;-45
2022/07/06 09:59:26;;;;;;;3.47;0.70;;;20.10;99.90;;;;;;5075603;28;20047;-48
2022/07/06 10:01:56;;;;;;;5.97;0.82;;;20.40;99.90;;;;;;5076037;28;20089;-45
2022/07/06 10:04:25;;;;;;;2.10;0.50;;;20.60;99.90;;;;;;5075623;28;20043;-45
2022/07/06 10:06:51;;;;;;;5.30;0.75;;;20.80;99.90;;;;;;5077179;28;20135;-45
2022/07/06 10:09:19;;;;;;;4.53;0.60;;;21.00;99.90;;;;;;5076410;28;20152;-45
2022/07/06 10:11:50;;;;;;;5.40;0.80;;;20.80;99.90;;;;;;5076376;28;20040;-44
2022/07/06 10:14:20;;;;;;;6.03;0.95;;;20.60;99.90;;;;;;5076054;28;20117;-47
2022/07/06 10:16:47;;;;;;;4.00;0.68;;;20.20;99.90;;;;;;5075712;28;20048;-46
2022/07/06 10:19:14;;;;;;;4.75;0.60;;;19.90;99.90;;;;;;5075458;28;20040;-43
2022/07/06 10:21:40;;;;;;;3.80;0.73;;;20.00;99.90;;;;;;5076350;28;20040;-46
2022/07/06 10:24:08;;;;;;;2.42;0.57;;;20.40;99.90;;;;;;5075687;28;20659;-44
2022/07/06 10:26:35;;;;;;;4.30;0.80;;;20.70;99.90;;;;;;5077824;28;20032;-45
2022/07/06 10:29:06;;;;;;;4.50;0.57;;;20.80;99.90;;;;;;5074831;28;20036;-44
2022/07/06 10:31:34;;;;;;;3.78;0.60;;;21.00;99.90;;;;;;5076758;28;20032;-44
2022/07/06 10:34:01;;;;;;;2.58;0.50;;;21.60;99.00;;;;;;5075878;28;20043;-46
2022/07/06 10:36:28;;;;;;;3.90;0.88;;;21.80;22.50;;;;;;5072412;28;21011;-45
2022/07/06 10:38:54;;;;;;;6.22;0.95;;;21.70;1.00;;;;;;5074013;28;20527;-45
2022/07/06 10:41:31;;;;;;;3.47;0.80;;;21.60;1.00;;;;;;5076064;28;20040;-44
2022/07/06 10:43:58;;;;;;;3.47;0.98;;;21.10;1.00;;;;;;5076482;28;20085;-44
2022/07/06 10:46:28;;;;;;;4.82;0.55;;;21.30;1.00;;;;;;5076342;28;20162;-45
2022/07/06 10:48:54;;;;;;;3.80;0.82;;;20.90;99.90;;;;;;5075469;28;20040;-44
2022/07/06 10:51:31;;;;;;;3.60;0.63;;;20.90;99.90;;;;;;5075274;28;20052;-46
2022/07/06 10:54:03;;;;;;;3.58;0.55;;;20.90;1.00;;;;;;5074687;28;20040;-48
2022/07/06 10:56:42;;;;;;;5.35;0.80;;;21.10;99.90;;;;;;5075298;28;20423;-45
2022/07/06 10:59:20;;;;;;;3.42;0.63;;;21.50;1.00;;;;;;5074964;28;20452;-45
2022/07/06 11:02:14;;;;;;;2.78;0.45;;;21.80;99.90;;;;;;5075061;28;20051;-46
2022/07/06 11:04:44;;;;;;;4.43;0.80;;;21.50;99.90;;;;;;5076481;28;20036;-47
2022/07/06 11:07:11;;;;;;;5.85;0.90;;;21.80;99.90;;;;;;5075649;28;20040;-48
2022/07/06 11:09:47;;;;;;;4.63;1.40;;;21.60;99.90;;;;;;5075124;28;20131;-46
2022/07/06 11:12:18;;;;;;;2.58;0.80;;;21.50;99.90;;;;;;5076244;28;20050;-44
2022/07/06 11:14:46;;;;;;;4.22;0.60;;;21.70;99.90;;;;;;5076339;28;20036;-44
2022/07/06 11:17:12;;;;;;;6.68;0.75;;;21.80;99.90;;;;;;5076063;28;20043;-45
2022/07/06 11:19:38;;;;;;;1.42;0.50;;;21.90;99.90;;;;;;5074872;28;20089;-45
2022/07/06 11:22:09;;;;;;;2.05;0.55;;;22.40;99.90;;;;;;5075870;28;20040;-43
2022/07/06 11:24:38;;;;;;;3.80;0.77;;;22.40;99.90;;;;;;5074942;28;20327;-44
2022/07/06 11:27:06;;;;;;;5.47;0.60;;;22.70;99.90;;;;;;5074079;28;20052;-43
2022/07/06 11:29:34;;;;;;;2.95;0.45;;;23.00;99.90;;;;;;5073886;28;20039;-45
2022/07/06 11:32:03;;;;;;;4.18;0.60;;;24.70;99.90;;;;;;5075022;28;20176;-45
2022/07/06 11:34:33;;;;;;;3.72;0.60;;;23.30;99.90;;;;;;5074987;28;20084;-43
2022/07/06 11:37:04;;;;;;;3.85;0.60;;;23.20;99.90;;;;;;5073427;28;20376;-43
2022/07/06 11:39:31;;;;;;;3.40;0.60;;;22.90;36.60;;;;;;5073630;28;20032;-45
2022/07/06 11:42:00;;;;;;;3.63;0.47;;;23.00;57.60;;;;;;5073480;28;20035;-44
2022/07/06 11:44:27;;;;;;;48.03;10.82;;;22.90;31.60;;;;;;5075215;28;20040;-46
2022/07/06 11:46:56;;;;;;;26.10;6.53;;;22.90;21.10;;;;;;5074516;28;20538;-45
2022/07/06 11:49:24;;;;;;;3.38;0.52;;;22.70;16.80;;;;;;5074003;28;20040;-47
2022/07/06 11:51:49;;;;;;;10.02;2.20;;;22.60;30.90;;;;;;5073845;28;20552;-45
2022/07/06 11:54:18;;;;;;;11.00;3.13;;;22.60;26.80;;;;;;5075063;28;20036;-43
2022/07/06 11:56:51;;;;;;;5.38;0.85;;;22.20;1.00;;;;;;5074434;28;20047;-44
2022/07/06 11:59:25;;;;;;;3.22;0.57;;;21.70;1.00;;;;;;5074426;28;20145;-47
2022/07/06 12:02:11;;;;;;;3.97;0.70;;;21.50;1.00;;;;;;5075267;28;20047;-45
2022/07/06 12:04:42;;;;;;;4.88;0.77;;;21.30;29.60;;;;;;5073761;28;20089;-46
2022/07/06 12:07:14;;;;;;;17.42;3.20;;;21.20;38.90;;;;;;5073929;28;20382;-45
2022/07/06 12:09:42;;;;;;;13.77;3.45;;;21.10;41.70;;;;;;5074909;28;20085;-46
2022/07/06 12:12:09;;;;;;;6.95;1.35;;;21.40;98.90;;;;;;5074807;28;20044;-44
2022/07/06 12:14:37;;;;;;;2.13;0.50;;;21.70;50.70;;;;;;5074439;28;20047;-45
2022/07/06 12:17:05;;;;;;;4.85;0.88;;;21.60;45.60;;;;;;5075751;28;20119;-45
2022/07/06 12:19:31;;;;;;;2.72;0.80;;;21.60;88.20;;;;;;5073492;28;20113;-46
2022/07/06 12:21:57;;;;;;;4.22;0.57;;;21.80;48.80;;;;;;5075075;28;20536;-43
2022/07/06 12:24:30;;;;;;;3.47;0.68;;;22.00;69.20;;;;;;5073835;28;20066;-48
2022/07/06 12:26:56;;;;;;;3.50;0.70;;;22.10;71.00;;;;;;5074206;28;20063;-46
2022/07/06 12:29:23;;;;;;;3.33;0.60;;;22.50;46.20;;;;;;5073352;28;20151;-43
2022/07/06 12:31:56;;;;;;;3.78;0.50;;;22.00;1.00;;;;;;5073292;28;20044;-43
2022/07/06 12:34:28;;;;;;;4.75;0.70;;;21.80;1.00;;;;;;5071957;28;20067;-45
2022/07/06 12:36:56;;;;;;;4.72;0.90;;;21.80;6.50;;;;;;5071706;28;20048;-45
2022/07/06 12:39:25;;;;;;;3.58;0.80;;;21.80;11.10;;;;;;5073612;28;20032;-46
2022/07/06 12:42:00;;;;;;;3.38;0.70;;;22.10;1.00;;;;;;5074232;28;20051;-45
2022/07/06 12:44:26;;;;;;;1.95;0.50;;;21.90;1.00;;;;;;5074125;28;20634;-43
2022/07/06 12:47:06;;;;;;;2.78;0.70;;;22.40;1.00;;;;;;5073619;28;20040;-46
2022/07/06 12:49:33;;;;;;;4.15;1.02;;;21.30;1.00;;;;;;5088066;28;20476;-49
2022/07/06 12:52:09;;;;;;;2.38;0.63;;;21.10;1.00;;;;;;5071537;28;20048;-43